Time;durP1;ratioP1;P1;durP2;ratioP2;P2;SDS_P1;SDS_P2;PMS_P1;PMS_P2;Temp;Humidity;BMP_temperature;BMP_pressure;BME280_temperature;BME280_humidity;BME280_pressure;Samples;Min_cycle;Max_cycle;Signal;HPM_P1;HPM_P2
2023/10/01 00:01:36;;;;;;;11.95;6.28;;;;;;;;;;5051405;28;20041;-51
2023/10/01 00:04:04;;;;;;;13.90;9.30;;;;;;;;;;5060157;28;20033;-48
2023/10/01 00:06:30;;;;;;;14.10;6.30;;;;;;;;;;5058450;28;20053;-49
2023/10/01 00:08:57;;;;;;;11.43;6.05;;;;;;;;;;5057797;28;20089;-48
2023/10/01 00:11:23;;;;;;;13.05;7.13;;;;;;;;;;5051371;28;20041;-50
2023/10/01 00:13:48;;;;;;;15.63;7.68;;;;;;;;;;5056272;28;20028;-50
2023/10/01 00:16:14;;;;;;;13.27;6.25;;;;;;;;;;5051826;28;20063;-50
2023/10/01 00:18:39;;;;;;;12.02;7.30;;;;;;;;;;5055076;28;20040;-48
2023/10/01 00:21:05;;;;;;;12.80;6.85;;;;;;;;;;5057078;28;20090;-51
2023/10/01 00:23:30;;;;;;;12.63;6.72;;;;;;;;;;5057112;28;20032;-51
2023/10/01 00:25:57;;;;;;;15.38;7.57;;;;;;;;;;5056566;28;20057;-51
2023/10/01 00:28:22;;;;;;;15.45;7.70;;;;;;;;;;5060549;28;20089;-50
2023/10/01 00:30:48;;;;;;;15.05;7.20;;;;;;;;;;5058317;28;20049;-52
2023/10/01 00:33:15;;;;;;;13.73;6.18;;;;;;;;;;5059731;28;20540;-50
2023/10/01 00:35:40;;;;;;;14.65;6.25;;;;;;;;;;5064627;28;20040;-48
2023/10/01 00:38:10;;;;;;;13.38;6.13;;;;;;;;;;5059406;28;20021;-49
2023/10/01 00:40:36;;;;;;;11.55;6.05;;;;;;;;;;5057445;28;20033;-52
2023/10/01 00:43:02;;;;;;;15.25;6.00;;;;;;;;;;5057238;28;20489;-48
2023/10/01 00:45:28;;;;;;;12.88;7.18;;;;;;;;;;5052342;28;20086;-51
2023/10/01 00:47:54;;;;;;;13.32;6.97;;;;;;;;;;5059175;28;20028;-51
2023/10/01 00:50:23;;;;;;;16.00;6.88;;;;;;;;;;5059730;28;20105;-50
2023/10/01 00:52:53;;;;;;;12.45;6.32;;;;;;;;;;5057318;28;20025;-48
2023/10/01 00:55:20;;;;;;;11.85;6.07;;;;;;;;;;5052797;28;20032;-50
2023/10/01 00:57:46;;;;;;;12.05;6.82;;;;;;;;;;5059922;28;20090;-50
2023/10/01 01:00:16;;;;;;;13.00;5.63;;;;;;;;;;5070757;28;20024;-51
2023/10/01 01:02:47;;;;;;;12.23;5.70;;;;;;;;;;5058061;28;20020;-52
2023/10/01 01:05:23;;;;;;;14.63;6.85;;;;;;;;;;5057039;28;20116;-50
2023/10/01 01:07:49;;;;;;;13.52;6.00;;;;;;;;;;5060297;28;20072;-49
2023/10/01 01:10:18;;;;;;;11.27;6.13;;;;;;;;;;5057813;28;20211;-48
2023/10/01 01:12:53;;;;;;;13.82;5.72;;;;;;;;;;5058511;28;20052;-50
2023/10/01 01:15:21;;;;;;;9.80;4.90;;;;;;;;;;5058407;28;20555;-52
2023/10/01 01:17:48;;;;;;;8.90;5.68;;;;;;;;;;5050529;28;20033;-49
2023/10/01 01:20:13;;;;;;;11.77;5.75;;;;;;;;;;5056628;28;20318;-48
2023/10/01 01:22:48;;;;;;;12.88;6.40;;;;;;;;;;5054671;28;20142;-47
2023/10/01 01:25:20;;;;;;;10.68;5.57;;;;;;;;;;5057262;28;20049;-51
2023/10/01 01:27:50;;;;;;;13.10;6.70;;;;;;;;;;5057241;28;20078;-48
2023/10/01 01:30:19;;;;;;;12.63;5.60;;;;;;;;;;5048210;28;20037;-49
2023/10/01 01:32:47;;;;;;;12.65;5.30;;;;;;;;;;5062565;28;20044;-49
2023/10/01 01:35:13;;;;;;;12.40;5.78;;;;;;;;;;5056218;28;20562;-50
2023/10/01 01:37:48;;;;;;;10.85;5.97;;;;;;;;;;5058184;28;20024;-50
2023/10/01 01:40:24;;;;;;;12.27;6.18;;;;;;;;;;5056316;28;20517;-48
2023/10/01 01:42:56;;;;;;;12.25;6.22;;;;;;;;;;5057106;28;20059;-53
2023/10/01 01:45:27;;;;;;;12.68;6.25;;;;;;;;;;5056894;28;20395;-51
2023/10/01 01:47:53;;;;;;;12.23;6.55;;;;;;;;;;5056539;28;20029;-51
2023/10/01 01:50:21;;;;;;;12.07;5.57;;;;;;;;;;5057307;28;20064;-50
2023/10/01 01:52:49;;;;;;;9.70;5.88;;;;;;;;;;5063665;28;20025;-50
2023/10/01 01:55:28;;;;;;;11.05;6.45;;;;;;;;;;5051802;28;20098;-50
2023/10/01 01:58:08;;;;;;;12.65;7.30;;;;;;;;;;5049449;28;20028;-48
2023/10/01 02:00:38;;;;;;;9.32;6.68;;;;;;;;;;5060423;28;20045;-50
2023/10/01 02:03:14;;;;;;;11.00;5.43;;;;;;;;;;5059852;28;20088;-52
2023/10/01 02:05:41;;;;;;;10.15;5.70;;;;;;;;;;5056860;28;20052;-50
2023/10/01 02:08:34;;;;;;;10.00;5.35;;;;;;;;;;5054276;28;20049;-52
2023/10/01 02:11:04;;;;;;;12.10;5.05;;;;;;;;;;5050565;28;20063;-51
2023/10/01 02:13:33;;;;;;;10.68;5.75;;;;;;;;;;5052514;28;20033;-52
2023/10/01 02:16:18;;;;;;;12.48;5.97;;;;;;;;;;5053867;28;20044;-51
2023/10/01 02:18:56;;;;;;;9.57;5.07;;;;;;;;;;5046542;28;20489;-52
2023/10/01 02:21:42;;;;;;;12.50;5.60;;;;;;;;;;5067959;28;20045;-51
2023/10/01 02:24:11;;;;;;;9.88;4.65;;;;;;;;;;5058010;28;20037;-52
2023/10/01 02:26:39;;;;;;;11.88;4.95;;;;;;;;;;5057123;28;20040;-51
2023/10/01 02:29:05;;;;;;;11.48;4.93;;;;;;;;;;5069539;28;20052;-52
2023/10/01 02:31:34;;;;;;;10.48;5.05;;;;;;;;;;5055279;28;20045;-52
2023/10/01 02:34:01;;;;;;;10.05;4.82;;;;;;;;;;5062600;28;20045;-52
2023/10/01 02:36:26;;;;;;;10.07;5.07;;;;;;;;;;5053341;28;20491;-51
2023/10/01 02:38:53;;;;;;;12.07;6.50;;;;;;;;;;5058750;28;20044;-51
2023/10/01 02:41:25;;;;;;;9.00;4.43;;;;;;;;;;5051864;28;20097;-51
2023/10/01 02:43:55;;;;;;;9.65;4.93;;;;;;;;;;5051824;28;20029;-51
2023/10/01 02:46:26;;;;;;;9.45;5.85;;;;;;;;;;5060124;28;20135;-53
2023/10/01 02:48:59;;;;;;;11.77;5.45;;;;;;;;;;5054143;28;20087;-50
2023/10/01 02:51:37;;;;;;;9.98;5.13;;;;;;;;;;5059905;28;20067;-50
2023/10/01 02:56:33;;;;;;;9.45;4.15;;;;;;;;;;5059806;28;20533;-49
2023/10/01 02:59:13;;;;;;;10.70;4.93;;;;;;;;;;5058449;28;20029;-48
2023/10/01 03:01:42;;;;;;;10.93;6.35;;;;;;;;;;5056351;28;20037;-50
2023/10/01 03:04:18;;;;;;;9.23;5.18;;;;;;;;;;5053580;28;20049;-51
2023/10/01 03:06:50;;;;;;;8.82;4.55;;;;;;;;;;5056945;28;20182;-47
2023/10/01 03:09:34;;;;;;;10.15;4.75;;;;;;;;;;5051878;28;20082;-49
2023/10/01 03:15:35;;;;;;;11.82;6.10;;;;;;;;;;5055913;28;20067;-50
2023/10/01 03:17:38;;;;;;;8.00;5.60;;;;;;;;;;5047148;28;20052;-52
2023/10/01 03:22:53;;;;;;;9.70;5.35;;;;;;;;;;5055446;28;20101;-52
2023/10/01 03:25:28;;;;;;;10.98;4.68;;;;;;;;;;5051368;28;20053;-49
2023/10/01 03:27:58;;;;;;;8.05;4.57;;;;;;;;;;5057499;28;20040;-53
2023/10/01 03:30:31;;;;;;;8.77;4.97;;;;;;;;;;5058696;28;20105;-51
2023/10/01 03:33:00;;;;;;;10.55;5.38;;;;;;;;;;5055746;28;20035;-51
2023/10/01 03:35:27;;;;;;;11.57;6.75;;;;;;;;;;5058516;28;20761;-50
2023/10/01 03:38:11;;;;;;;8.50;4.35;;;;;;;;;;5055165;28;20037;-48
2023/10/01 03:40:57;;;;;;;9.63;4.72;;;;;;;;;;5054302;28;20500;-48
2023/10/01 03:43:35;;;;;;;9.98;5.40;;;;;;;;;;5065725;28;20025;-52
2023/10/01 03:46:26;;;;;;;10.23;5.80;;;;;;;;;;5054923;28;20048;-47
2023/10/01 03:57:17;;;;;;;12.50;6.05;;;;;;;;;;5051032;28;20536;-50
2023/10/01 03:59:53;;;;;;;8.50;4.53;;;;;;;;;;5063625;28;20048;-53
2023/10/01 04:05:21;;;;;;;10.77;5.40;;;;;;;;;;5054609;28;20498;-52
2023/10/01 04:07:47;;;;;;;8.73;5.18;;;;;;;;;;5050361;28;20053;-48
2023/10/01 04:10:21;;;;;;;8.98;5.13;;;;;;;;;;5058743;28;20051;-47
2023/10/01 04:12:54;;;;;;;9.45;5.35;;;;;;;;;;5057894;28;20029;-51
2023/10/01 04:15:29;;;;;;;9.32;5.07;;;;;;;;;;5058627;28;20494;-50
2023/10/01 04:20:48;;;;;;;9.52;4.82;;;;;;;;;;5051130;28;20313;-47
2023/10/01 04:23:29;;;;;;;7.88;4.85;;;;;;;;;;5052429;28;20070;-52
2023/10/01 04:26:06;;;;;;;6.97;4.00;;;;;;;;;;5065945;28;20069;-49
2023/10/01 04:28:44;;;;;;;9.45;4.78;;;;;;;;;;5056749;28;20493;-49
2023/10/01 04:31:14;;;;;;;9.15;3.95;;;;;;;;;;5059096;28;20044;-50
2023/10/01 04:33:47;;;;;;;5.65;3.67;;;;;;;;;;5065843;28;20470;-51
2023/10/01 04:36:16;;;;;;;8.30;5.07;;;;;;;;;;5055214;28;20033;-52
2023/10/01 04:38:43;;;;;;;7.80;4.40;;;;;;;;;;5060426;28;20035;-52
2023/10/01 04:41:13;;;;;;;5.88;4.15;;;;;;;;;;5060361;28;20052;-51
2023/10/01 04:43:51;;;;;;;8.38;5.18;;;;;;;;;;5064785;28;20025;-51
2023/10/01 04:46:20;;;;;;;9.45;5.32;;;;;;;;;;5064278;28;20140;-52
2023/10/01 04:48:47;;;;;;;11.73;4.38;;;;;;;;;;5058603;28;20055;-51
2023/10/01 04:51:12;;;;;;;7.75;4.47;;;;;;;;;;5059005;28;20048;-52
2023/10/01 04:53:39;;;;;;;10.10;4.85;;;;;;;;;;5058903;28;20029;-51
2023/10/01 04:56:10;;;;;;;9.23;5.57;;;;;;;;;;5061247;28;20037;-51
2023/10/01 04:58:36;;;;;;;7.18;4.88;;;;;;;;;;5065537;28;20028;-51
2023/10/01 05:01:11;;;;;;;7.63;5.57;;;;;;;;;;5058703;28;20092;-52
2023/10/01 05:03:39;;;;;;;10.20;6.03;;;;;;;;;;5058537;28;20025;-53
2023/10/01 05:06:13;;;;;;;7.55;4.80;;;;;;;;;;5056641;28;20053;-50
2023/10/01 05:08:42;;;;;;;8.10;5.50;;;;;;;;;;5057898;28;20174;-51
2023/10/01 05:11:13;;;;;;;8.45;4.78;;;;;;;;;;5062911;28;20036;-51
2023/10/01 05:13:43;;;;;;;10.00;5.25;;;;;;;;;;5060838;28;20047;-51
2023/10/01 05:16:13;;;;;;;7.80;4.20;;;;;;;;;;5060419;28;20045;-52
2023/10/01 05:18:40;;;;;;;8.02;5.20;;;;;;;;;;5053254;28;20027;-50
2023/10/01 05:21:12;;;;;;;7.85;4.32;;;;;;;;;;5071878;28;20035;-51
2023/10/01 05:23:39;;;;;;;6.07;4.18;;;;;;;;;;5058432;28;20024;-53
2023/10/01 05:26:06;;;;;;;8.18;4.30;;;;;;;;;;5064087;28;20109;-53
2023/10/01 05:28:31;;;;;;;7.18;5.03;;;;;;;;;;5065221;28;20032;-51
2023/10/01 05:31:08;;;;;;;8.27;5.20;;;;;;;;;;5061001;28;20043;-49
2023/10/01 05:33:34;;;;;;;7.45;4.72;;;;;;;;;;5055557;28;20028;-53
2023/10/01 05:36:04;;;;;;;7.03;4.63;;;;;;;;;;5058218;28;20051;-51
2023/10/01 05:38:34;;;;;;;7.10;3.97;;;;;;;;;;5060956;28;20024;-53
2023/10/01 05:41:09;;;;;;;6.90;4.05;;;;;;;;;;5071311;28;20523;-53
2023/10/01 05:43:43;;;;;;;6.22;3.55;;;;;;;;;;5058374;28;20032;-52
2023/10/01 05:46:12;;;;;;;9.65;4.75;;;;;;;;;;5061238;28;20044;-53
2023/10/01 05:48:40;;;;;;;8.13;5.13;;;;;;;;;;5057335;28;20084;-50
2023/10/01 05:51:18;;;;;;;6.82;3.75;;;;;;;;;;5055997;28;20048;-52
2023/10/01 05:53:52;;;;;;;7.55;3.92;;;;;;;;;;5060805;28;20033;-50
2023/10/01 05:56:17;;;;;;;10.15;4.10;;;;;;;;;;5047860;28;20063;-49
2023/10/01 05:58:43;;;;;;;7.05;5.15;;;;;;;;;;5067313;28;20040;-52
2023/10/01 06:01:16;;;;;;;6.22;4.60;;;;;;;;;;5057904;28;20123;-51
2023/10/01 06:03:48;;;;;;;7.63;4.78;;;;;;;;;;5057556;28;20021;-50
2023/10/01 06:06:14;;;;;;;8.07;3.95;;;;;;;;;;5059768;28;20036;-50
2023/10/01 06:08:49;;;;;;;6.65;3.45;;;;;;;;;;5056011;28;20079;-52
2023/10/01 06:11:16;;;;;;;7.60;4.40;;;;;;;;;;5061029;28;20037;-49
2023/10/01 06:13:49;;;;;;;7.47;4.70;;;;;;;;;;5061855;28;20029;-51
2023/10/01 06:16:23;;;;;;;6.68;4.10;;;;;;;;;;5059261;28;20183;-50
2023/10/01 06:18:52;;;;;;;7.22;4.40;;;;;;;;;;5055723;28;20501;-52
2023/10/01 06:21:25;;;;;;;5.90;3.67;;;;;;;;;;5063940;28;20040;-51
2023/10/01 06:23:53;;;;;;;8.02;4.10;;;;;;;;;;5049509;28;20039;-46
2023/10/01 06:26:36;;;;;;;6.72;4.43;;;;;;;;;;5054200;28;20040;-49
2023/10/01 06:29:07;;;;;;;7.00;4.30;;;;;;;;;;5052384;28;20064;-49
2023/10/01 06:31:48;;;;;;;7.07;5.07;;;;;;;;;;5053153;28;20130;-53
2023/10/01 06:34:21;;;;;;;5.85;3.38;;;;;;;;;;5047145;28;21919;-48
2023/10/01 06:36:58;;;;;;;7.32;4.20;;;;;;;;;;5043270;28;20122;-52
2023/10/01 06:39:30;;;;;;;7.30;4.18;;;;;;;;;;5043274;28;20029;-49
2023/10/01 06:42:18;;;;;;;6.75;4.25;;;;;;;;;;5046526;28;20414;-48
2023/10/01 06:44:43;;;;;;;7.97;3.78;;;;;;;;;;5055481;28;20025;-52
2023/10/01 06:47:14;;;;;;;6.60;4.57;;;;;;;;;;5050993;28;20036;-51
2023/10/01 06:52:34;;;;;;;6.03;4.05;;;;;;;;;;5042186;28;20036;-53
2023/10/01 06:55:01;;;;;;;5.65;3.65;;;;;;;;;;5053835;28;20075;-49
2023/10/01 06:57:36;;;;;;;6.88;4.10;;;;;;;;;;5052323;28;20029;-52
2023/10/01 07:00:13;;;;;;;5.53;3.55;;;;;;;;;;5051162;28;20020;-52
2023/10/01 07:02:40;;;;;;;5.88;4.25;;;;;;;;;;5043594;28;20033;-51
2023/10/01 07:05:06;;;;;;;5.63;3.65;;;;;;;;;;5051479;28;20112;-52
2023/10/01 07:07:35;;;;;;;6.18;3.50;;;;;;;;;;5053868;28;20171;-52
2023/10/01 07:10:10;;;;;;;5.68;4.05;;;;;;;;;;5048470;28;20044;-53
2023/10/01 07:12:35;;;;;;;;;;;;;;;;;;5049318;28;20029;-49
2023/10/01 07:15:02;;;;;;;7.32;3.95;;;;;;;;;;5054641;28;19924;-50
2023/10/01 07:17:28;;;;;;;5.95;3.67;;;;;;;;;;5051098;28;20056;-51
2023/10/01 07:20:00;;;;;;;8.07;3.78;;;;;;;;;;5051992;28;20521;-49
2023/10/01 07:22:32;;;;;;;4.85;2.97;;;;;;;;;;5041882;28;20045;-49
2023/10/01 07:25:05;;;;;;;6.57;4.10;;;;;;;;;;5042726;28;20124;-53
2023/10/01 07:27:30;;;;;;;6.63;4.40;;;;;;;;;;5046242;28;20021;-49
2023/10/01 07:29:57;;;;;;;8.52;3.97;;;;;;;;;;5045411;28;20021;-53
2023/10/01 07:32:24;;;;;;;6.10;4.53;;;;;;;;;;5046218;28;20056;-52
2023/10/01 07:34:58;;;;;;;4.65;3.75;;;;;;;;;;5052812;28;20023;-52
2023/10/01 07:37:25;;;;;;;6.22;4.93;;;;;;;;;;5057365;28;20528;-50
2023/10/01 07:39:55;;;;;;;5.50;3.83;;;;;;;;;;5054788;28;20082;-52
2023/10/01 07:42:25;;;;;;;7.93;4.47;;;;;;;;;;5054861;28;20056;-50
2023/10/01 07:44:52;;;;;;;4.65;3.95;;;;;;;;;;5047033;28;20172;-49
2023/10/01 07:47:31;;;;;;;4.40;3.72;;;;;;;;;;5054592;28;20495;-53
2023/10/01 07:50:03;;;;;;;5.82;4.35;;;;;;;;;;5049594;28;20144;-49
2023/10/01 07:52:35;;;;;;;8.25;4.75;;;;;;;;;;5052282;28;20040;-49
2023/10/01 07:55:29;;;;;;;6.55;4.65;;;;;;;;;;5047840;28;20028;-48
2023/10/01 07:57:48;;;;;;;7.15;4.95;;;;;;;;;;5055771;28;20083;-51
2023/10/01 08:00:26;;;;;;;8.70;5.63;;;;;;;;;;5063424;28;20051;-56
2023/10/01 08:06:13;;;;;;;13.82;6.55;;;;;;;;;;4971397;28;20046;-49
2023/10/01 08:08:47;;;;;;;11.07;6.85;;;;;;;;;;4970257;28;20620;-46
2023/10/01 08:13:56;;;;;;;8.02;5.28;;;;;;;;;;5050630;28;20127;-48
2023/10/01 08:16:23;;;;;;;7.10;6.30;;;;;;;;;;5041959;28;20040;-50
2023/10/01 08:18:51;;;;;;;6.35;4.13;;;;;;;;;;5055880;28;20025;-51
2023/10/01 08:21:17;;;;;;;9.15;5.18;;;;;;;;;;5051019;28;20033;-52
2023/10/01 08:23:54;;;;;;;10.20;5.22;;;;;;;;;;5055700;28;20028;-48
2023/10/01 08:29:06;;;;;;;7.60;4.32;;;;;;;;;;5057733;28;20032;-51
2023/10/01 08:34:27;;;;;;;;;;;;;;;;;;5047964;28;20432;-50
2023/10/01 08:36:57;;;;;;;10.98;6.25;;;;;;;;;;5049613;28;19917;-49
2023/10/01 08:39:47;;;;;;;10.15;5.97;;;;;;;;;;5050254;28;20032;-51
2023/10/01 08:42:13;;;;;;;9.65;6.28;;;;;;;;;;5046845;28;20045;-52
2023/10/01 08:44:52;;;;;;;9.55;7.50;;;;;;;;;;5038357;28;20055;-52
2023/10/01 08:47:34;;;;;;;10.13;6.38;;;;;;;;;;5046128;28;20399;-51
2023/10/01 08:50:16;;;;;;;10.02;6.00;;;;;;;;;;5046674;28;20037;-54
2023/10/01 08:52:52;;;;;;;8.80;6.78;;;;;;;;;;5052016;28;20032;-52
2023/10/01 08:55:21;;;;;;;11.38;6.05;;;;;;;;;;5053330;28;20096;-51
2023/10/01 08:57:52;;;;;;;7.75;4.38;;;;;;;;;;5056995;28;20035;-49
2023/10/01 09:00:20;;;;;;;6.97;4.95;;;;;;;;;;5055501;28;20043;-51
2023/10/01 09:02:52;;;;;;;9.75;5.32;;;;;;;;;;5057640;28;20025;-50
2023/10/01 09:05:25;;;;;;;9.95;5.40;;;;;;;;;;5047756;28;20045;-50
2023/10/01 09:08:15;;;;;;;9.27;5.40;;;;;;;;;;5052629;28;20506;-52
2023/10/01 09:10:52;;;;;;;9.20;6.30;;;;;;;;;;5050719;28;20041;-50
2023/10/01 09:13:21;;;;;;;10.23;6.30;;;;;;;;;;5050958;28;20559;-50
2023/10/01 09:15:55;;;;;;;9.98;7.60;;;;;;;;;;5055528;28;20060;-50
2023/10/01 09:18:25;;;;;;;12.10;8.63;;;;;;;;;;5057355;28;20064;-52
2023/10/01 09:21:08;;;;;;;10.55;6.88;;;;;;;;;;5052055;28;20029;-54
2023/10/01 09:23:58;;;;;;;9.52;6.35;;;;;;;;;;5056791;28;20036;-55
2023/10/01 09:26:37;;;;;;;8.95;5.35;;;;;;;;;;5056686;28;20033;-53
2023/10/01 09:29:13;;;;;;;7.57;5.53;;;;;;;;;;5057677;28;20439;-52
2023/10/01 09:32:07;;;;;;;7.90;5.97;;;;;;;;;;5055590;28;20028;-53
2023/10/01 09:34:33;;;;;;;10.48;6.80;;;;;;;;;;5054880;28;20498;-51
2023/10/01 09:37:35;;;;;;;10.98;6.28;;;;;;;;;;5057156;28;20086;-48
2023/10/01 09:42:57;;;;;;;10.20;7.05;;;;;;;;;;5054765;28;20078;-53
2023/10/01 09:45:29;;;;;;;9.63;6.70;;;;;;;;;;5051841;28;20491;-51
2023/10/01 09:48:04;;;;;;;9.90;7.22;;;;;;;;;;5057334;28;20025;-53
2023/10/01 09:50:43;;;;;;;9.18;6.07;;;;;;;;;;5057978;28;20040;-52
2023/10/01 09:53:14;;;;;;;12.15;7.63;;;;;;;;;;5049596;28;20029;-52
2023/10/01 09:55:48;;;;;;;8.73;5.50;;;;;;;;;;5055711;28;20037;-54
2023/10/01 09:58:24;;;;;;;11.57;7.03;;;;;;;;;;5043409;28;20025;-51
2023/10/01 10:01:08;;;;;;;11.90;8.77;;;;;;;;;;5065778;28;20033;-48
2023/10/01 10:03:37;;;;;;;13.35;8.10;;;;;;;;;;5050627;28;20352;-52
2023/10/01 10:06:07;;;;;;;9.07;7.50;;;;;;;;;;5060688;28;20052;-51
2023/10/01 10:08:38;;;;;;;10.70;7.50;;;;;;;;;;5049688;28;20072;-54
2023/10/01 10:11:08;;;;;;;9.48;7.60;;;;;;;;;;5055711;28;20124;-52
2023/10/01 10:16:32;;;;;;;11.80;7.68;;;;;;;;;;5058748;28;20047;-53
2023/10/01 10:19:05;;;;;;;8.70;7.80;;;;;;;;;;5052965;28;20034;-52
2023/10/01 10:24:29;;;;;;;8.68;7.88;;;;;;;;;;5053634;28;20103;-52
2023/10/01 10:27:09;;;;;;;8.25;5.72;;;;;;;;;;5053718;28;20041;-55
2023/10/01 10:29:46;;;;;;;7.68;5.78;;;;;;;;;;5058914;28;20032;-49
2023/10/01 10:32:13;;;;;;;9.10;5.47;;;;;;;;;;5046408;28;20525;-53
2023/10/01 10:34:49;;;;;;;9.68;6.03;;;;;;;;;;5052567;28;20040;-53
2023/10/01 10:37:36;;;;;;;7.35;6.10;;;;;;;;;;5045066;28;20033;-54
2023/10/01 10:43:07;;;;;;;9.10;6.53;;;;;;;;;;5050721;28;21553;-53
2023/10/01 10:45:44;;;;;;;8.02;5.53;;;;;;;;;;5046089;28;20048;-52
2023/10/01 10:48:16;;;;;;;7.00;5.53;;;;;;;;;;5044954;28;20037;-53
2023/10/01 10:50:45;;;;;;;6.00;5.30;;;;;;;;;;5048430;28;20033;-52
2023/10/01 10:53:25;;;;;;;7.07;6.30;;;;;;;;;;5050330;28;20057;-52
2023/10/01 10:55:54;;;;;;;7.72;5.60;;;;;;;;;;5049122;28;20082;-54
2023/10/01 10:58:31;;;;;;;5.57;4.55;;;;;;;;;;5044134;28;20118;-54
2023/10/01 11:01:16;;;;;;;6.00;4.72;;;;;;;;;;5060595;28;20056;-54
2023/10/01 11:03:43;;;;;;;6.53;4.93;;;;;;;;;;5042956;28;20029;-53
2023/10/01 11:06:23;;;;;;;6.30;4.60;;;;;;;;;;5052575;28;20068;-51
2023/10/01 11:08:53;;;;;;;6.72;4.43;;;;;;;;;;5056550;28;20033;-54
2023/10/01 11:11:25;;;;;;;6.85;5.47;;;;;;;;;;5053015;28;20045;-54
2023/10/01 11:14:00;;;;;;;8.07;5.13;;;;;;;;;;5059635;28;20032;-54
2023/10/01 11:16:38;;;;;;;5.32;4.53;;;;;;;;;;5053150;28;20075;-53
2023/10/01 11:19:14;;;;;;;7.15;5.45;;;;;;;;;;5053252;28;20048;-54
2023/10/01 11:21:58;;;;;;;4.40;3.90;;;;;;;;;;5049474;28;20041;-54
2023/10/01 11:24:33;;;;;;;5.10;4.20;;;;;;;;;;5052209;28;20428;-51
2023/10/01 11:27:25;;;;;;;5.95;4.47;;;;;;;;;;5047291;28;20047;-52
2023/10/01 11:30:12;;;;;;;5.88;4.00;;;;;;;;;;5044358;28;20059;-53
2023/10/01 11:32:58;;;;;;;4.00;3.35;;;;;;;;;;5056104;28;20049;-52
2023/10/01 11:35:34;;;;;;;5.55;5.03;;;;;;;;;;5049929;28;20044;-54
2023/10/01 11:38:19;;;;;;;4.70;3.95;;;;;;;;;;5050083;28;20033;-54
2023/10/01 11:43:43;;;;;;;6.18;4.50;;;;;;;;;;5043365;28;20031;-54
2023/10/01 11:46:19;;;;;;;6.47;4.40;;;;;;;;;;5054982;28;20549;-55
2023/10/01 11:49:02;;;;;;;4.30;3.90;;;;;;;;;;5045226;28;20446;-50
2023/10/01 11:52:01;;;;;;;6.57;4.32;;;;;;;;;;5044712;28;20037;-54
2023/10/01 11:54:52;;;;;;;5.03;3.60;;;;;;;;;;5060227;28;20051;-54
2023/10/01 11:57:22;;;;;;;7.30;4.78;;;;;;;;;;5049690;28;20099;-54
2023/10/01 11:59:58;;;;;;;5.68;4.20;;;;;;;;;;5053560;28;20060;-47
2023/10/01 12:02:33;;;;;;;6.45;5.85;;;;;;;;;;5039216;28;20080;-50
2023/10/01 12:05:03;;;;;;;6.10;4.57;;;;;;;;;;5050815;28;20036;-49
2023/10/01 12:07:40;;;;;;;9.52;5.47;;;;;;;;;;5049950;28;20049;-49
2023/10/01 12:10:07;;;;;;;4.63;4.13;;;;;;;;;;5048473;28;20749;-52
2023/10/01 12:12:37;;;;;;;5.55;5.03;;;;;;;;;;5052520;28;20119;-51
2023/10/01 12:17:51;;;;;;;7.00;5.22;;;;;;;;;;5038171;28;20028;-50
2023/10/01 12:20:22;;;;;;;5.68;5.15;;;;;;;;;;5047041;28;20124;-52
2023/10/01 12:23:13;;;;;;;6.65;4.57;;;;;;;;;;5061198;28;20021;-47
2023/10/01 12:25:46;;;;;;;5.28;4.78;;;;;;;;;;5048850;28;20267;-51
2023/10/01 12:28:19;;;;;;;7.63;5.03;;;;;;;;;;5047611;28;20040;-51
2023/10/01 12:30:57;;;;;;;6.72;5.57;;;;;;;;;;5056190;28;20056;-47
2023/10/01 12:33:22;;;;;;;7.05;4.68;;;;;;;;;;5057096;28;20032;-50
2023/10/01 12:35:48;;;;;;;5.70;5.20;;;;;;;;;;5054493;28;20025;-48
2023/10/01 12:40:43;;;;;;;7.28;5.47;;;;;;;;;;5057593;28;20040;-53
2023/10/01 12:45:54;;;;;;;5.53;4.85;;;;;;;;;;5058812;28;20095;-54
2023/10/01 12:48:20;;;;;;;5.80;5.25;;;;;;;;;;5058790;28;20158;-48
2023/10/01 12:51:03;;;;;;;7.03;5.68;;;;;;;;;;5067886;28;20083;-52
2023/10/01 12:53:34;;;;;;;6.93;4.78;;;;;;;;;;5056136;28;20025;-50
2023/10/01 12:56:03;;;;;;;8.38;5.95;;;;;;;;;;5047750;28;20079;-53
2023/10/01 12:58:35;;;;;;;6.80;5.07;;;;;;;;;;5066234;28;20057;-52
2023/10/01 13:01:06;;;;;;;5.07;4.57;;;;;;;;;;5057284;28;20398;-52
2023/10/01 13:03:31;;;;;;;6.97;5.88;;;;;;;;;;5062168;28;20041;-52
2023/10/01 13:06:05;;;;;;;6.47;4.88;;;;;;;;;;5057196;28;20086;-50
2023/10/01 13:08:31;;;;;;;6.13;5.50;;;;;;;;;;5056491;28;20075;-47
2023/10/01 13:10:57;;;;;;;6.57;4.88;;;;;;;;;;5062199;28;20040;-52
2023/10/01 13:13:35;;;;;;;5.55;5.00;;;;;;;;;;5058142;28;20036;-51
2023/10/01 13:16:01;;;;;;;7.72;6.07;;;;;;;;;;5057991;28;20075;-52
2023/10/01 13:18:31;;;;;;;6.40;5.80;;;;;;;;;;5060946;28;20101;-52
2023/10/01 13:21:09;;;;;;;5.97;4.82;;;;;;;;;;5057765;28;20037;-53
2023/10/01 13:23:44;;;;;;;6.60;5.35;;;;;;;;;;5051268;28;20036;-51
2023/10/01 13:26:15;;;;;;;7.38;6.68;;;;;;;;;;5062675;28;20050;-51
2023/10/01 13:29:00;;;;;;;5.10;4.50;;;;;;;;;;5048984;28;20393;-52
2023/10/01 13:34:06;;;;;;;6.25;4.63;;;;;;;;;;5059524;28;20455;-49
2023/10/01 13:36:46;;;;;;;5.35;4.13;;;;;;;;;;5053143;28;20060;-52
2023/10/01 13:39:15;;;;;;;6.25;4.82;;;;;;;;;;5064296;28;20044;-50
2023/10/01 14:08:46;;;;;;;4.72;3.47;;;;;;;;;;5055040;28;20094;-53
2023/10/01 14:11:16;;;;;;;4.78;3.97;;;;;;;;;;5057968;28;20041;-53
2023/10/01 14:13:41;;;;;;;8.25;4.80;;;;;;;;;;5051805;28;20025;-53
2023/10/01 14:16:12;;;;;;;5.28;3.63;;;;;;;;;;5063758;28;20037;-54
2023/10/01 14:18:44;;;;;;;4.47;3.53;;;;;;;;;;5054634;28;20410;-51
2023/10/01 14:21:15;;;;;;;3.78;3.25;;;;;;;;;;5059622;28;20499;-53
2023/10/01 14:23:44;;;;;;;5.43;3.03;;;;;;;;;;5055329;28;20475;-52
2023/10/01 14:26:10;;;;;;;3.88;3.38;;;;;;;;;;5050665;28;20049;-49
2023/10/01 14:28:37;;;;;;;3.53;3.15;;;;;;;;;;5050114;28;20033;-51
2023/10/01 14:31:05;;;;;;;4.38;2.90;;;;;;;;;;5039061;28;20116;-52
2023/10/01 14:33:34;;;;;;;3.15;2.85;;;;;;;;;;5051470;28;20057;-55
2023/10/01 14:36:03;;;;;;;4.30;3.63;;;;;;;;;;5051184;28;20040;-51
2023/10/01 14:38:40;;;;;;;3.95;2.92;;;;;;;;;;5052364;28;20045;-54
2023/10/01 14:41:10;;;;;;;4.70;2.60;;;;;;;;;;5047495;28;20036;-54
2023/10/01 14:43:48;;;;;;;5.85;4.57;;;;;;;;;;5058541;28;20533;-52
2023/10/01 14:46:30;;;;;;;6.15;4.32;;;;;;;;;;5058236;28;20041;-53
2023/10/01 14:49:06;;;;;;;8.40;3.55;;;;;;;;;;5044497;28;20120;-53
2023/10/01 14:51:48;;;;;;;5.03;4.20;;;;;;;;;;5052878;28;20108;-54
2023/10/01 14:54:17;;;;;;;6.32;3.88;;;;;;;;;;5055887;28;20427;-54
2023/10/01 14:56:55;;;;;;;5.22;4.47;;;;;;;;;;5053678;28;20112;-51
2023/10/01 14:59:23;;;;;;;5.50;3.42;;;;;;;;;;5054074;28;20568;-50
2023/10/01 15:01:50;;;;;;;5.75;4.68;;;;;;;;;;5050113;28;20375;-48
2023/10/01 15:04:20;;;;;;;3.83;3.42;;;;;;;;;;5053274;28;20048;-51
2023/10/01 15:07:00;;;;;;;5.30;4.78;;;;;;;;;;5047455;28;20749;-49
2023/10/01 15:09:39;;;;;;;4.65;4.10;;;;;;;;;;5048296;28;20074;-50
2023/10/01 15:12:07;;;;;;;4.82;3.95;;;;;;;;;;5045145;28;20033;-51
2023/10/01 15:14:32;;;;;;;;;;;;;;;;;;5056754;28;20106;-52
2023/10/01 15:17:00;;;;;;;5.45;4.95;;;;;;;;;;5046460;28;19920;-52
2023/10/01 15:19:25;;;;;;;5.80;4.32;;;;;;;;;;5050612;28;20052;-49
2023/10/01 15:22:02;;;;;;;5.13;4.63;;;;;;;;;;5051459;28;20044;-52
2023/10/01 15:24:31;;;;;;;6.05;5.45;;;;;;;;;;5057775;28;20029;-50
2023/10/01 15:26:59;;;;;;;4.63;4.22;;;;;;;;;;5040528;28;20041;-50
2023/10/01 15:29:31;;;;;;;5.80;5.03;;;;;;;;;;5047088;28;20021;-50
2023/10/01 15:31:58;;;;;;;4.65;4.15;;;;;;;;;;5055277;28;20075;-48
2023/10/01 15:34:25;;;;;;;5.35;4.60;;;;;;;;;;5048487;28;20032;-50
2023/10/01 15:36:51;;;;;;;6.25;4.35;;;;;;;;;;5043326;28;20091;-53
2023/10/01 15:42:09;;;;;;;5.50;5.00;;;;;;;;;;5047409;28;20048;-53
2023/10/01 15:44:47;;;;;;;5.50;4.97;;;;;;;;;;5047005;28;20025;-52
2023/10/01 15:47:26;;;;;;;6.22;4.70;;;;;;;;;;5050950;28;20122;-53
2023/10/01 15:50:15;;;;;;;4.78;4.28;;;;;;;;;;5041772;28;20033;-50
2023/10/01 15:52:46;;;;;;;6.47;5.82;;;;;;;;;;5034787;28;20068;-51
2023/10/01 15:55:15;;;;;;;6.00;5.50;;;;;;;;;;5057524;28;20030;-51
2023/10/01 15:57:42;;;;;;;5.32;4.82;;;;;;;;;;5050070;28;20021;-51
2023/10/01 16:00:27;;;;;;;6.47;4.82;;;;;;;;;;5054804;28;20040;-48
2023/10/01 16:03:05;;;;;;;6.60;5.32;;;;;;;;;;5051585;28;20662;-48
2023/10/01 16:05:42;;;;;;;6.72;6.13;;;;;;;;;;5054413;28;20051;-54
2023/10/01 16:08:08;;;;;;;5.57;5.07;;;;;;;;;;5047349;28;20052;-52
2023/10/01 16:10:43;;;;;;;6.50;5.95;;;;;;;;;;5054695;28;20040;-51
2023/10/01 16:13:14;;;;;;;5.35;4.85;;;;;;;;;;5049488;28;20114;-49
2023/10/01 16:15:49;;;;;;;5.78;5.25;;;;;;;;;;5058721;28;20037;-53
2023/10/01 16:18:18;;;;;;;4.60;4.07;;;;;;;;;;5047786;28;20112;-53
2023/10/01 16:20:44;;;;;;;4.93;4.47;;;;;;;;;;5053512;28;20518;-54
2023/10/01 16:23:14;;;;;;;6.57;5.07;;;;;;;;;;5059909;28;20032;-52
2023/10/01 16:25:48;;;;;;;5.32;4.50;;;;;;;;;;5054001;28;20057;-52
2023/10/01 16:28:20;;;;;;;6.30;4.20;;;;;;;;;;5056783;28;20024;-52
2023/10/01 16:31:05;;;;;;;5.20;4.68;;;;;;;;;;5057083;28;20046;-49
2023/10/01 16:33:41;;;;;;;4.93;3.60;;;;;;;;;;5050677;28;20447;-52
2023/10/01 16:36:20;;;;;;;4.82;4.43;;;;;;;;;;5054915;28;20032;-52
2023/10/01 16:38:47;;;;;;;5.28;4.78;;;;;;;;;;5061176;28;20027;-52
2023/10/01 16:41:16;;;;;;;4.70;4.20;;;;;;;;;;5055245;28;20060;-51
2023/10/01 16:43:43;;;;;;;6.45;4.63;;;;;;;;;;5051963;28;20628;-52